createdAt,value
2022-12-20T00:01:15.566Z,13.10
2022-12-20T00:03:42.542Z,8.83
2022-12-20T00:06:09.090Z,5.97
2022-12-20T00:08:36.617Z,7.77
2022-12-20T00:11:03.593Z,11.83
2022-12-20T00:13:30.142Z,12.43
2022-12-20T00:16:15.861Z,8.27
2022-12-20T00:18:45.217Z,7.67
2022-12-20T00:21:12.239Z,11.10
2022-12-20T00:23:39.009Z,12.20
2022-12-20T00:26:09.433Z,10.90
2022-12-20T00:28:36.050Z,7.90
2022-12-20T00:31:03.365Z,9.73
2022-12-20T00:33:33.737Z,9.40
2022-12-20T00:36:01.255Z,7.80
2022-12-20T00:38:27.827Z,10.07
2022-12-20T00:41:00.837Z,8.63
2022-12-20T00:43:27.912Z,10.10
2022-12-20T00:45:55.325Z,10.07
2022-12-20T00:48:22.584Z,8.13
2022-12-20T00:50:49.241Z,9.20
2022-12-20T00:53:17.870Z,9.27
2022-12-20T00:55:47.873Z,10.47
2022-12-20T00:58:14.463Z,8.80
2022-12-20T01:00:41.309Z,8.73
2022-12-20T01:03:07.965Z,9.60
2022-12-20T01:05:34.750Z,9.73
2022-12-20T01:08:01.281Z,9.00
2022-12-20T01:10:28.154Z,7.53
2022-12-20T01:12:54.696Z,8.43
2022-12-20T01:15:21.461Z,9.33
2022-12-20T01:17:48.308Z,4.77
2022-12-20T01:20:17.394Z,6.87
2022-12-20T01:22:47.660Z,9.17
2022-12-20T01:25:14.531Z,10.13
2022-12-20T01:27:41.151Z,6.83
2022-12-20T01:30:08.154Z,10.83
2022-12-20T01:32:34.826Z,9.70
2022-12-20T01:35:01.417Z,5.17
2022-12-20T01:37:28.053Z,6.03
2022-12-20T01:39:54.630Z,11.57
2022-12-20T01:42:21.331Z,8.17
2022-12-20T01:44:52.053Z,8.10
2022-12-20T01:47:18.633Z,6.73
2022-12-20T01:49:46.111Z,7.30
2022-12-20T01:52:16.184Z,11.90
2022-12-20T01:54:45.051Z,10.60
2022-12-20T01:57:16.559Z,8.10
2022-12-20T01:59:43.477Z,11.40
2022-12-20T02:02:10.715Z,13.60
2022-12-20T02:07:22.283Z,13.67
2022-12-20T02:12:42.760Z,12.33
2022-12-20T02:15:18.859Z,16.53
2022-12-20T02:18:04.529Z,18.80
2022-12-20T02:20:33.954Z,18.80
2022-12-20T02:23:06.458Z,15.03
2022-12-20T02:28:32.612Z,19.20
2022-12-20T02:30:59.669Z,21.70
2022-12-20T02:33:26.712Z,23.23
2022-12-20T02:35:53.543Z,18.67
2022-12-20T02:41:43.054Z,28.40
2022-12-20T02:44:28.814Z,21.97
2022-12-20T02:46:55.821Z,15.03
2022-12-20T02:49:23.041Z,22.60
2022-12-20T02:51:49.653Z,34.10
2022-12-20T02:54:16.189Z,33.07
2022-12-20T02:56:47.546Z,32.43
2022-12-20T03:01:59.559Z,34.00
2022-12-20T03:04:27.780Z,34.10
2022-12-20T03:06:57.610Z,34.97
2022-12-20T03:09:24.242Z,29.37
2022-12-20T03:11:51.489Z,34.53
2022-12-20T03:14:18.520Z,34.77
2022-12-20T03:16:46.477Z,35.77
2022-12-20T03:19:13.135Z,33.20
2022-12-20T03:21:39.655Z,23.63
2022-12-20T03:24:06.361Z,29.37
2022-12-20T03:26:33.125Z,30.13
2022-12-20T03:29:00.836Z,37.23
2022-12-20T03:31:28.235Z,33.23
2022-12-20T03:33:55.194Z,27.57
2022-12-20T03:36:24.012Z,34.37
2022-12-20T03:38:55.306Z,34.03
2022-12-20T03:41:23.844Z,34.60
2022-12-20T03:43:52.727Z,37.80
2022-12-20T03:49:04.856Z,24.87
2022-12-20T03:54:20.524Z,33.70
2022-12-20T03:59:54.754Z,36.63
2022-12-20T04:02:21.872Z,29.20
2022-12-20T04:04:49.243Z,41.60
2022-12-20T04:07:16.038Z,39.73
2022-12-20T04:09:46.148Z,43.83
2022-12-20T04:12:14.870Z,30.30
2022-12-20T04:14:42.531Z,35.37
2022-12-20T04:17:10.200Z,32.40
2022-12-20T04:19:37.442Z,28.77
2022-12-20T04:22:06.344Z,35.60
2022-12-20T04:24:47.287Z,40.13
2022-12-20T04:27:22.046Z,45.43
2022-12-20T04:29:51.213Z,56.73
2022-12-20T04:32:19.578Z,48.57
2022-12-20T04:34:46.178Z,42.33
2022-12-20T04:37:12.876Z,54.40
2022-12-20T04:39:50.174Z,49.30
2022-12-20T04:42:23.073Z,53.03
2022-12-20T04:44:50.693Z,53.17
2022-12-20T04:47:23.085Z,48.43
2022-12-20T04:49:50.808Z,49.23
2022-12-20T04:52:36.063Z,49.23
2022-12-20T04:55:02.666Z,48.63
2022-12-20T04:57:32.510Z,47.03
2022-12-20T05:00:00.689Z,43.53
2022-12-20T05:02:27.535Z,50.77
2022-12-20T05:05:00.706Z,40.87
2022-12-20T05:07:27.767Z,38.57
2022-12-20T05:09:56.392Z,44.80
2022-12-20T05:12:23.023Z,28.07
2022-12-20T05:14:49.707Z,46.90
2022-12-20T05:17:20.092Z,47.87
2022-12-20T05:19:46.646Z,33.70
2022-12-20T05:22:34.215Z,27.77
2022-12-20T05:25:29.395Z,35.83
2022-12-20T05:27:59.376Z,33.97
2022-12-20T05:30:29.957Z,42.10
2022-12-20T05:32:57.521Z,37.43
2022-12-20T05:35:24.239Z,45.47
2022-12-20T05:37:57.363Z,30.67
2022-12-20T05:40:24.137Z,37.20
2022-12-20T05:42:50.672Z,34.23
2022-12-20T05:45:17.805Z,39.17
2022-12-20T05:47:57.403Z,36.97
2022-12-20T05:50:24.296Z,31.43
2022-12-20T05:53:29.390Z,45.73
2022-12-20T05:55:59.317Z,53.27
2022-12-20T05:58:29.665Z,32.23
2022-12-20T06:01:05.554Z,21.67
2022-12-20T06:03:37.167Z,43.23
2022-12-20T06:06:14.175Z,60.53
2022-12-20T06:08:44.155Z,63.03
2022-12-20T06:11:16.221Z,55.23
2022-12-20T06:13:51.165Z,56.50
2022-12-20T06:16:20.830Z,42.00
2022-12-20T06:18:47.750Z,61.77
2022-12-20T06:21:15.764Z,41.70
2022-12-20T06:23:42.999Z,59.07
2022-12-20T06:26:13.644Z,54.77
2022-12-20T06:28:52.545Z,54.13
2022-12-20T06:31:27.149Z,35.40
2022-12-20T06:33:54.799Z,61.43
2022-12-20T06:36:24.082Z,58.67
2022-12-20T06:38:51.616Z,62.80
2022-12-20T06:41:18.252Z,58.40
2022-12-20T06:43:45.151Z,69.53
2022-12-20T06:46:12.080Z,72.50
2022-12-20T06:48:39.375Z,76.70
2022-12-20T06:51:08.526Z,62.20
2022-12-20T06:53:35.354Z,64.13
2022-12-20T06:56:02.535Z,74.53
2022-12-20T06:58:31.506Z,71.97
2022-12-20T07:00:58.629Z,68.80
2022-12-20T07:03:25.333Z,69.43
2022-12-20T07:05:54.411Z,76.47
2022-12-20T07:08:21.701Z,77.43
2022-12-20T07:10:49.942Z,73.43
2022-12-20T07:13:16.540Z,81.60
2022-12-20T07:15:43.154Z,52.27
2022-12-20T07:20:54.972Z,66.47
2022-12-20T07:23:21.563Z,73.17
2022-12-20T07:25:55.485Z,83.33
2022-12-20T07:28:22.452Z,79.13
2022-12-20T07:30:49.119Z,66.93
2022-12-20T07:33:15.801Z,64.77
2022-12-20T07:35:44.936Z,88.60
2022-12-20T07:38:14.166Z,94.20
2022-12-20T07:40:42.340Z,61.13
2022-12-20T07:43:14.785Z,76.53
2022-12-20T07:45:41.606Z,87.63
2022-12-20T07:48:12.562Z,93.27
2022-12-20T07:50:41.969Z,71.40
2022-12-20T07:53:08.689Z,79.90
2022-12-20T07:55:37.043Z,80.03
2022-12-20T07:58:05.034Z,56.00
2022-12-20T08:00:31.801Z,72.27
2022-12-20T08:02:58.677Z,80.50
2022-12-20T08:05:27.413Z,79.93
2022-12-20T08:07:58.904Z,85.43
2022-12-20T08:10:27.801Z,69.33
2022-12-20T08:12:54.463Z,64.50
2022-12-20T08:15:23.227Z,66.47
2022-12-20T08:17:51.439Z,64.73
2022-12-20T08:20:18.315Z,63.50
2022-12-20T08:22:45.326Z,62.57
2022-12-20T08:25:12.181Z,59.67
2022-12-20T08:27:38.795Z,59.17
2022-12-20T08:30:05.840Z,53.03
2022-12-20T08:35:16.363Z,47.50
2022-12-20T08:37:42.927Z,57.40
2022-12-20T08:40:10.038Z,54.40
2022-12-20T08:42:36.597Z,58.63
2022-12-20T08:45:03.751Z,57.90
2022-12-20T08:47:30.474Z,52.23
2022-12-20T08:49:57.136Z,58.77
2022-12-20T08:52:23.821Z,53.90
2022-12-20T08:54:50.373Z,57.40
2022-12-20T08:57:17.024Z,50.33
2022-12-20T08:59:43.704Z,57.43
2022-12-20T09:02:10.445Z,51.17
2022-12-20T09:04:37.328Z,52.13
2022-12-20T09:07:04.053Z,53.70
2022-12-20T09:09:31.598Z,59.73
2022-12-20T09:11:58.187Z,42.40
2022-12-20T09:14:24.789Z,52.93
2022-12-20T09:16:51.356Z,39.37
2022-12-20T09:19:18.023Z,59.63
2022-12-20T09:24:29.837Z,47.03
2022-12-20T09:26:56.507Z,55.80
2022-12-20T09:29:28.336Z,50.03
2022-12-20T09:31:58.860Z,61.40
2022-12-20T09:34:25.645Z,45.07
2022-12-20T09:36:52.596Z,53.73
2022-12-20T09:39:19.254Z,50.03
2022-12-20T09:41:46.032Z,54.57
2022-12-20T09:47:10.711Z,46.40
2022-12-20T09:49:39.697Z,56.00
2022-12-20T09:52:09.409Z,51.47
2022-12-20T09:57:38.398Z,51.93
2022-12-20T10:00:11.499Z,46.73
2022-12-20T10:05:42.035Z,40.30
2022-12-20T10:08:13.798Z,32.17
2022-12-20T10:10:41.026Z,39.90
2022-12-20T10:13:23.731Z,44.03
2022-12-20T10:15:58.121Z,50.17
2022-12-20T10:18:28.987Z,45.80
2022-12-20T10:21:08.221Z,46.03
2022-12-20T10:24:07.490Z,47.47
2022-12-20T10:26:34.371Z,48.67
2022-12-20T10:29:01.043Z,46.57
2022-12-20T10:31:27.869Z,51.73
2022-12-20T10:33:54.621Z,52.20
2022-12-20T10:36:31.790Z,49.37
2022-12-20T10:38:59.233Z,46.43
2022-12-20T10:41:26.721Z,52.00
2022-12-20T10:44:14.435Z,50.60
2022-12-20T10:46:57.340Z,53.47
2022-12-20T10:49:28.814Z,48.00
2022-12-20T10:51:56.379Z,47.33
2022-12-20T10:54:24.049Z,50.93
2022-12-20T10:56:57.846Z,48.43
2022-12-20T10:59:29.657Z,52.80
2022-12-20T11:01:56.634Z,42.50
2022-12-20T11:04:28.185Z,51.37
2022-12-20T11:06:56.123Z,50.27
2022-12-20T11:09:30.605Z,53.77
2022-12-20T11:12:16.210Z,52.67
2022-12-20T11:14:43.749Z,40.60
2022-12-20T11:17:13.884Z,48.37
2022-12-20T11:22:35.100Z,41.13
2022-12-20T11:25:25.246Z,45.40
2022-12-20T11:27:54.974Z,43.27
2022-12-20T11:30:23.175Z,51.60
2022-12-20T11:33:19.317Z,41.67
2022-12-20T11:35:55.143Z,50.10
2022-12-20T11:38:31.499Z,50.70
2022-12-20T11:41:16.894Z,47.07
2022-12-20T11:44:23.501Z,46.20
2022-12-20T11:46:39.675Z,43.43
2022-12-20T11:49:12.662Z,48.67
2022-12-20T11:51:42.219Z,44.27
2022-12-20T11:54:18.524Z,43.03
2022-12-20T11:56:45.596Z,25.50
2022-12-20T11:59:36.546Z,41.47
2022-12-20T12:02:11.360Z,47.03
2022-12-20T12:04:41.027Z,34.30
2022-12-20T12:07:28.235Z,44.20
2022-12-20T12:10:08.405Z,46.67
2022-12-20T12:12:43.282Z,37.00
2022-12-20T12:15:17.426Z,46.77
2022-12-20T12:18:00.815Z,46.40
2022-12-20T12:20:36.716Z,48.83
2022-12-20T12:23:05.750Z,47.67
2022-12-20T12:25:32.462Z,50.07
2022-12-20T12:27:59.159Z,50.57
2022-12-20T12:30:25.938Z,51.33
2022-12-20T12:32:54.142Z,44.93
2022-12-20T12:35:24.021Z,56.37
2022-12-20T12:38:02.953Z,48.70
2022-12-20T12:40:39.477Z,52.33
2022-12-20T12:43:09.236Z,45.97
2022-12-20T12:45:50.269Z,34.90
2022-12-20T12:48:28.340Z,45.20
2022-12-20T12:50:56.310Z,40.10
2022-12-20T12:53:32.655Z,33.37
2022-12-20T12:56:19.151Z,42.10
2022-12-20T12:58:53.981Z,37.13
2022-12-20T13:01:47.089Z,25.77
2022-12-20T13:04:19.916Z,39.77
2022-12-20T13:06:55.917Z,32.13
2022-12-20T13:09:25.606Z,37.13
2022-12-20T13:12:00.981Z,27.93
2022-12-20T13:14:30.259Z,31.47
2022-12-20T13:17:12.358Z,42.20
2022-12-20T13:19:40.833Z,37.77
2022-12-20T13:22:14.980Z,35.40
2022-12-20T13:24:51.024Z,38.93
2022-12-20T13:27:18.945Z,43.23
2022-12-20T13:29:57.996Z,35.03
2022-12-20T13:32:43.415Z,36.07
2022-12-20T13:35:28.311Z,44.03
2022-12-20T13:37:56.062Z,38.87
2022-12-20T13:40:35.283Z,36.10
2022-12-20T13:43:25.388Z,37.50
2022-12-20T13:45:53.445Z,35.90
2022-12-20T13:48:22.268Z,42.17
2022-12-20T13:50:53.314Z,39.77
2022-12-20T13:53:20.766Z,38.13
2022-12-20T13:55:48.843Z,37.47
2022-12-20T13:58:31.552Z,37.83
2022-12-20T14:01:05.694Z,36.70
2022-12-20T14:03:32.650Z,35.07
2022-12-20T14:06:01.525Z,37.97
2022-12-20T14:08:29.671Z,35.53
2022-12-20T14:10:56.333Z,34.83
2022-12-20T14:13:23.901Z,40.20
2022-12-20T14:15:50.810Z,36.33
2022-12-20T14:21:10.173Z,33.80
2022-12-20T14:26:30.535Z,30.37
2022-12-20T14:31:43.113Z,38.13
2022-12-20T14:34:13.272Z,38.53
2022-12-20T14:36:43.702Z,39.60
2022-12-20T14:39:27.170Z,41.63
2022-12-20T14:41:58.620Z,40.43
2022-12-20T14:44:25.629Z,43.47
2022-12-20T14:49:41.014Z,41.13
2022-12-20T14:55:10.780Z,46.90
2022-12-20T14:57:39.460Z,42.67
2022-12-20T15:00:12.328Z,43.20
2022-12-20T15:02:39.137Z,49.60
2022-12-20T15:05:24.687Z,47.70
2022-12-20T15:07:52.672Z,50.17
2022-12-20T15:10:19.702Z,67.73
2022-12-20T15:15:31.485Z,41.43
2022-12-20T15:17:58.252Z,48.80
2022-12-20T15:20:24.968Z,43.77
2022-12-20T15:22:51.613Z,47.00
2022-12-20T15:25:18.562Z,48.40
2022-12-20T15:27:45.374Z,43.67
2022-12-20T15:30:14.116Z,48.37
2022-12-20T15:32:54.697Z,46.03
2022-12-20T15:35:22.644Z,48.53
2022-12-20T15:40:34.219Z,47.90
2022-12-20T15:43:03.118Z,49.20
2022-12-20T15:45:30.050Z,47.43
2022-12-20T15:47:56.806Z,49.87
2022-12-20T15:50:23.605Z,45.23
2022-12-20T15:52:51.060Z,49.60
2022-12-20T15:55:17.918Z,51.20
2022-12-20T15:57:44.715Z,50.90
2022-12-20T16:00:12.399Z,49.40
2022-12-20T16:02:40.936Z,39.67
2022-12-20T16:05:10.424Z,45.60
2022-12-20T16:07:37.238Z,50.30
2022-12-20T16:10:04.260Z,48.50
2022-12-20T16:12:32.830Z,50.93
2022-12-20T16:14:59.685Z,53.63
2022-12-20T16:17:26.389Z,50.00
2022-12-20T16:19:53.164Z,46.37
2022-12-20T16:22:20.705Z,53.60
2022-12-20T16:24:47.544Z,48.77
2022-12-20T16:27:15.626Z,49.57
2022-12-20T16:29:43.648Z,33.00
2022-12-20T16:32:17.578Z,51.90
2022-12-20T16:34:44.950Z,52.43
2022-12-20T16:37:12.183Z,50.07
2022-12-20T16:39:43.041Z,52.00
2022-12-20T16:42:13.921Z,48.23
2022-12-20T16:44:43.012Z,46.80
2022-12-20T16:47:10.563Z,52.53
2022-12-20T16:49:38.868Z,55.07
2022-12-20T16:52:06.801Z,55.90
2022-12-20T16:54:35.745Z,51.87
2022-12-20T16:57:02.393Z,56.77
2022-12-20T16:59:30.194Z,50.90
2022-12-20T17:01:57.574Z,56.03
2022-12-20T17:04:25.061Z,54.50
2022-12-20T17:06:51.818Z,51.60
2022-12-20T17:09:19.428Z,52.37
2022-12-20T17:11:46.215Z,46.37
2022-12-20T17:14:13.267Z,56.30
2022-12-20T17:16:41.026Z,50.70
2022-12-20T17:19:07.815Z,58.50
2022-12-20T17:24:27.344Z,51.03
2022-12-20T17:26:55.459Z,54.10
2022-12-20T17:29:22.480Z,56.07
2022-12-20T17:31:49.429Z,49.60
2022-12-20T17:34:24.265Z,55.40
2022-12-20T17:36:52.751Z,51.73
2022-12-20T17:39:22.456Z,55.40
2022-12-20T17:41:54.315Z,53.97
2022-12-20T17:44:21.224Z,57.83
2022-12-20T17:46:48.090Z,56.57
2022-12-20T17:49:15.598Z,51.03
2022-12-20T17:51:42.349Z,46.63
2022-12-20T17:54:15.022Z,51.40
2022-12-20T17:56:42.304Z,40.63
2022-12-20T17:59:09.857Z,27.13
2022-12-20T18:01:36.712Z,46.17
2022-12-20T18:04:07.593Z,48.47
2022-12-20T18:06:37.825Z,49.83
2022-12-20T18:09:05.162Z,48.80
2022-12-20T18:11:33.045Z,48.23
2022-12-20T18:13:59.986Z,43.60
2022-12-20T18:16:27.684Z,45.23
2022-12-20T18:18:54.820Z,47.80
2022-12-20T18:21:21.821Z,45.00
2022-12-20T18:23:48.930Z,46.37
2022-12-20T18:29:01.780Z,46.07
2022-12-20T18:31:29.517Z,47.17
2022-12-20T18:33:58.306Z,47.73
2022-12-20T18:36:32.869Z,51.03
2022-12-20T18:39:00.185Z,39.63
2022-12-20T18:41:28.288Z,41.37
2022-12-20T18:44:00.385Z,47.50
2022-12-20T18:46:27.310Z,47.10
2022-12-20T18:48:57.727Z,42.03
2022-12-20T18:51:26.229Z,48.27
2022-12-20T18:53:55.150Z,47.50
2022-12-20T18:56:25.522Z,47.43
2022-12-20T18:58:52.898Z,45.67
2022-12-20T19:01:22.901Z,46.13
2022-12-20T19:03:51.538Z,49.87
2022-12-20T19:06:19.396Z,46.87
2022-12-20T19:08:48.279Z,40.47
2022-12-20T19:11:16.057Z,36.67
2022-12-20T19:13:44.600Z,48.00
2022-12-20T19:16:12.449Z,49.30
2022-12-20T19:18:39.883Z,48.43
2022-12-20T19:21:07.147Z,48.67
2022-12-20T19:23:34.845Z,49.73
2022-12-20T19:26:06.879Z,50.10
2022-12-20T19:28:36.111Z,50.17
2022-12-20T19:31:06.511Z,52.87
2022-12-20T19:33:36.726Z,46.33
2022-12-20T19:36:09.833Z,51.00
2022-12-20T19:38:38.075Z,49.50
2022-12-20T19:41:06.134Z,53.20
2022-12-20T19:43:33.102Z,46.77
2022-12-20T19:46:00.955Z,54.93
2022-12-20T19:48:30.811Z,43.23
2022-12-20T19:51:04.688Z,48.10
2022-12-20T19:53:32.132Z,46.47
2022-12-20T19:55:59.918Z,46.80
2022-12-20T20:01:13.099Z,47.37
2022-12-20T20:03:40.252Z,48.60
2022-12-20T20:06:07.443Z,46.93
2022-12-20T20:08:37.135Z,50.27
2022-12-20T20:13:49.120Z,50.50
2022-12-20T20:18:59.906Z,49.33
2022-12-20T20:21:30.381Z,52.83
2022-12-20T20:24:06.210Z,47.63
2022-12-20T20:26:34.657Z,50.23
2022-12-20T20:29:02.446Z,50.37
2022-12-20T20:31:29.744Z,50.77
2022-12-20T20:36:44.501Z,47.27
2022-12-20T20:39:11.683Z,50.07
2022-12-20T20:41:40.190Z,52.60
2022-12-20T20:44:12.472Z,49.67
2022-12-20T20:46:46.438Z,49.27
2022-12-20T20:49:13.986Z,47.60
2022-12-20T20:51:42.421Z,52.27
2022-12-20T20:54:10.605Z,42.80
2022-12-20T20:56:37.384Z,49.73
2022-12-20T20:59:07.138Z,48.23
2022-12-20T21:01:37.988Z,47.73
2022-12-20T21:04:08.588Z,52.77
2022-12-20T21:06:41.208Z,48.87
2022-12-20T21:09:08.976Z,50.07
2022-12-20T21:11:37.390Z,46.90
2022-12-20T21:14:05.918Z,49.93
2022-12-20T21:16:33.353Z,43.93
2022-12-20T21:19:01.370Z,38.33
2022-12-20T21:21:28.214Z,45.57
2022-12-20T21:23:55.063Z,44.60
2022-12-20T21:26:23.096Z,46.00
2022-12-20T21:28:49.899Z,40.97
2022-12-20T21:31:17.164Z,39.73
2022-12-20T21:33:48.820Z,32.37
2022-12-20T21:36:16.466Z,43.93
2022-12-20T21:38:46.788Z,46.40
2022-12-20T21:41:13.439Z,39.63
2022-12-20T21:43:40.073Z,43.43
2022-12-20T21:46:11.925Z,44.47
2022-12-20T21:48:39.045Z,41.17
2022-12-20T21:51:06.692Z,45.63
2022-12-20T21:53:35.735Z,43.80
2022-12-20T21:56:02.499Z,44.50
2022-12-20T21:58:29.714Z,41.63
2022-12-20T22:00:57.418Z,42.60
2022-12-20T22:03:24.560Z,43.43
2022-12-20T22:05:52.116Z,42.30
2022-12-20T22:08:19.199Z,43.97
2022-12-20T22:10:46.137Z,44.33
2022-12-20T22:13:13.011Z,44.23
2022-12-20T22:15:39.850Z,42.27
2022-12-20T22:18:07.226Z,41.33
2022-12-20T22:20:37.212Z,48.40
2022-12-20T22:23:04.466Z,41.10
2022-12-20T22:25:31.781Z,43.60
2022-12-20T22:27:59.128Z,45.77
2022-12-20T22:30:26.010Z,45.87
2022-12-20T22:32:52.727Z,43.43
2022-12-20T22:35:22.955Z,46.63
2022-12-20T22:37:50.541Z,40.93
2022-12-20T22:40:17.472Z,35.83
2022-12-20T22:42:44.316Z,35.23
2022-12-20T22:45:11.092Z,40.87
2022-12-20T22:47:37.758Z,37.87
2022-12-20T22:50:04.870Z,40.83
2022-12-20T22:52:35.352Z,38.83
2022-12-20T22:55:03.122Z,42.00
2022-12-20T22:57:31.131Z,47.23
2022-12-20T22:59:58.930Z,43.80
2022-12-20T23:02:26.389Z,39.33
2022-12-20T23:04:53.479Z,40.63
2022-12-20T23:07:20.533Z,39.70
2022-12-20T23:09:47.432Z,40.30
2022-12-20T23:12:32.846Z,37.63
2022-12-20T23:15:26.048Z,35.63
2022-12-20T23:20:55.862Z,36.73
2022-12-20T23:26:14.212Z,41.80
2022-12-20T23:28:41.140Z,43.50
2022-12-20T23:31:08.395Z,33.47
2022-12-20T23:33:35.395Z,42.00
2022-12-20T23:36:03.174Z,34.53
2022-12-20T23:38:33.528Z,37.93
2022-12-20T23:41:00.238Z,41.33
2022-12-20T23:43:31.006Z,40.33
2022-12-20T23:46:06.988Z,29.80
2022-12-20T23:51:18.476Z,31.97
2022-12-20T23:53:45.325Z,42.43
2022-12-20T23:56:13.509Z,40.80
2022-12-20T23:58:40.238Z,43.47
